MSC Cordoba — A8OF8 — position and weather

sailwx.info

Track history (hours):
 
Tides and Currents Weather Stations Pressure Air Temp Water Temp Dewpoint Dewpoint Depression Visibility Wind Speed Wind Dir Waves Ship Positions

MSC Cordoba

Last reported at 2015-Jul-07 02:25 UTC. Time now 2015-Jul-08 06:35 UTC.
Position N 40°43' W 009°53'.

Length 274 m; draft 11.7 m.

Type: Ship. MMSI: 636091473.

Date/timePositionNaut miles runAvg speedWind from/ knotsBaromVisibWave heightAir tempDewpointWater temp
2015-Jul-07 02:25N 40°43' W 009°53'1818.8
2015-Jul-07 01:28N 40°25' W 009°50'1718.7
2015-Jul-07 00:33N 40°09' W 009°51'1918.8
2015-Jul-06 23:33N 39°50' W 009°51'1918.6
2015-Jul-06 22:33N 39°31' W 009°51'1918.8
2015-Jul-06 21:33N 39°12' W 009°52'1818.5
2015-Jul-06 20:33N 38°54' W 009°51'1918.6
2015-Jul-06 19:33N 38°35' W 009°50'1918.7
2015-Jul-06 18:33N 38°17' W 009°45'1918.6
2015-Jul-06 17:34N 37°59' W 009°39'1918.5
2015-Jul-06 16:33N 37°41' W 009°34'1918.9
2015-Jul-06 15:33N 37°23' W 009°29'1918.7
2015-Jul-06 14:33N 37°04' W 009°24'1817.9
2015-Jul-06 13:33N 36°49' W 009°13'1817.8
2015-Jul-06 12:33N 36°41' W 008°53'1918.6
2015-Jul-06 11:33N 36°37' W 008°30'1818.4
2015-Jul-06 10:33N 36°30' W 008°09'1818.5
2015-Jul-06 09:33N 36°24' W 007°48'11218.7
2015-Jul-06 03:34N 35°59' W 005°32'1918.9
2015-Jul-06 02:34N 36°03' W 005°09'13018.5
2015-Jul-05 19:31N 36°23' W 002°30'1818.8
2015-Jul-05 18:34N 36°26' W 002°08'2518.8
2015-Jul-05 17:14N 36°30' W 001°37'1218.5
2015-Jul-05 16:33N 36°32' W 001°22'1818.3
2015-Jul-05 15:33N 36°34' W 000°59'1818.3
2015-Jul-05 14:33N 36°37' W 000°37'1918.3
2015-Jul-05 13:32N 36°39' W 000°14'1818.5
2015-Jul-05 12:34N 36°41' E 000°09'1918.5
2015-Jul-05 11:33N 36°44' E 000°31'1918.7
2015-Jul-05 10:33N 36°46' E 000°54'1818.3
2015-Jul-05 09:33N 36°49' E 001°17'1918.6
2015-Jul-05 08:33N 36°51' E 001°40'1818.1
2015-Jul-05 07:33N 36°54' E 002°03'8 8.0
2015-Jul-05 06:33N 36°55' E 002°13'1716.7
2015-Jul-05 05:33N 36°57' E 002°33'1919.0
2015-Jul-05 04:33N 36°60' E 002°57'1918.9
2015-Jul-05 03:33N 37°02' E 003°20'1919.0
2015-Jul-05 02:32N 37°05' E 003°44'1919.0
2015-Jul-05 01:33N 37°08' E 004°07'3919.3
2015-Jul-04 23:32N 37°13' E 004°56'2718.9
2015-Jul-04 22:08N 37°16' E 005°29'1119.3
2015-Jul-04 21:33N 37°18' E 005°43'12419.3
2015-Jul-04 15:08N 37°34' E 008°17'1518.5
2015-Jul-04 14:20N 37°36' E 008°36'1518.7
2015-Jul-04 13:34N 37°37' E 008°54'1918.8
2015-Jul-04 12:34N 37°38' E 009°18'1918.5
2015-Jul-04 11:33N 37°39' E 009°41'2218.6
2015-Jul-04 10:23N 37°39' E 010°09'1518.3
2015-Jul-04 09:33N 37°37' E 010°28'2118.4
2015-Jul-04 08:24N 37°31' E 010°53'1818.4
2015-Jul-04 07:25N 37°25' E 011°15'1619.0
2015-Jul-04 06:34N 37°18' E 011°33'2120.3
2015-Jul-04 05:32N 37°09' E 011°57'1818.7
2015-Jul-04 04:33N 37°03' E 012°19'1919.0
2015-Jul-04 03:33N 36°58' E 012°42'1919.0
2015-Jul-04 02:33N 36°52' E 013°04'1818.6
2015-Jul-04 01:33N 36°46' E 013°26'1918.6
2015-Jul-04 00:34N 36°40' E 013°48'1818.3
2015-Jul-03 23:33N 36°35' E 014°10'1918.6
2015-Jul-03 22:33N 36°29' E 014°32'1818.3
2015-Jul-03 21:33N 36°27' E 014°55'1918.6
2015-Jul-03 20:33N 36°27' E 015°18'1918.8
2015-Jul-03 19:33N 36°27' E 015°41'  
2015-Jun-30 23:29N 40°25' E 029°06'19 9.7
2015-Jun-30 21:33N 40°32' E 028°43'1414.4
2015-Jun-30 20:33N 40°46' E 028°42'9 0.3
2015-Jun-29 18:15N 40°55' E 028°42'1213.4
2015-Jun-29 17:23N 40°44' E 028°44'1517.7
2015-Jun-29 16:33N 40°45' E 029°03'1515.4
2015-Jun-29 15:33N 40°45' E 029°24'6 5.9
2015-Jun-29 14:27N 40°46' E 029°32'0 0.0
2015-Jun-29 13:33N 40°46' E 029°32'0 0.0
2015-Jun-29 12:27N 40°46' E 029°32'0 0.0
2015-Jun-29 11:32N 40°46' E 029°32'0 0.0
2015-Jun-29 10:32N 40°46' E 029°32'0 0.0
2015-Jun-29 08:25N 40°46' E 029°32'0 0.0
2015-Jun-29 07:18N 40°46' E 029°32'0 0.0
2015-Jun-29 06:24N 40°46' E 029°32'0 0.0
2015-Jun-29 05:30N 40°46' E 029°32'0 0.0
2015-Jun-29 04:29N 40°46' E 029°32'0 0.0
2015-Jun-29 02:28N 40°46' E 029°32'0 0.0
2015-Jun-29 01:16N 40°46' E 029°32'0 0.0
2015-Jun-29 00:15N 40°46' E 029°32'0 0.0
2015-Jun-28 23:27N 40°46' E 029°32'0 0.0
2015-Jun-28 22:33N 40°46' E 029°32'0 0.0
2015-Jun-28 21:32N 40°46' E 029°32'0 0.0
2015-Jun-28 20:26N 40°46' E 029°32'0 0.0
2015-Jun-28 19:25N 40°46' E 029°32'0 0.0
2015-Jun-28 18:31N 40°46' E 029°32'0 0.0
2015-Jun-28 17:24N 40°46' E 029°32'0 0.0
2015-Jun-28 15:17N 40°46' E 029°32'0 0.0
2015-Jun-28 13:11N 40°46' E 029°32'0 0.0
2015-Jun-28 12:19N 40°46' E 029°32'3 4.4
2015-Jun-28 11:33N 40°45' E 029°28'9 9.2
2015-Jun-28 10:33N 40°44' E 029°16'1616.1
2015-Jun-28 09:33N 40°44' E 028°54'26415.5
2015-Jun-27 16:32N 37°52' E 024°36'  
Track history (hours):
 
Tides and Currents Weather Stations Pressure Air Temp Water Temp Dewpoint Dewpoint Depression Visibility Wind Speed Wind Dir Waves Ship Positions

MSC Cordoba

Last reported at 2015-Jul-07 02:25 UTC. Time now 2015-Jul-08 06:35 UTC.
Position N 40°43' W 009°53'.

Length 274 m; draft 11.7 m.

Type: Ship. MMSI: 636091473.

Date/timePositionNaut miles runAvg speedWind from/ knotsBaromVisibWave heightAir tempDewpointWater temp
2015-Jul-07 02:25N 40°43' W 009°53'1818.8
2015-Jul-07 01:28N 40°25' W 009°50'1718.7
2015-Jul-07 00:33N 40°09' W 009°51'1918.8
2015-Jul-06 23:33N 39°50' W 009°51'1918.6
2015-Jul-06 22:33N 39°31' W 009°51'1918.8
2015-Jul-06 21:33N 39°12' W 009°52'1818.5
2015-Jul-06 20:33N 38°54' W 009°51'1918.6
2015-Jul-06 19:33N 38°35' W 009°50'1918.7
2015-Jul-06 18:33N 38°17' W 009°45'1918.6
2015-Jul-06 17:34N 37°59' W 009°39'1918.5
2015-Jul-06 16:33N 37°41' W 009°34'1918.9
2015-Jul-06 15:33N 37°23' W 009°29'1918.7
2015-Jul-06 14:33N 37°04' W 009°24'1817.9
2015-Jul-06 13:33N 36°49' W 009°13'1817.8
2015-Jul-06 12:33N 36°41' W 008°53'1918.6
2015-Jul-06 11:33N 36°37' W 008°30'1818.4
2015-Jul-06 10:33N 36°30' W 008°09'1818.5
2015-Jul-06 09:33N 36°24' W 007°48'11218.7
2015-Jul-06 03:34N 35°59' W 005°32'1918.9
2015-Jul-06 02:34N 36°03' W 005°09'13018.5
2015-Jul-05 19:31N 36°23' W 002°30'1818.8
2015-Jul-05 18:34N 36°26' W 002°08'2518.8
2015-Jul-05 17:14N 36°30' W 001°37'1218.5
2015-Jul-05 16:33N 36°32' W 001°22'1818.3
2015-Jul-05 15:33N 36°34' W 000°59'1818.3
2015-Jul-05 14:33N 36°37' W 000°37'1918.3
2015-Jul-05 13:32N 36°39' W 000°14'1818.5
2015-Jul-05 12:34N 36°41' E 000°09'1918.5
2015-Jul-05 11:33N 36°44' E 000°31'1918.7
2015-Jul-05 10:33N 36°46' E 000°54'1818.3
2015-Jul-05 09:33N 36°49' E 001°17'1918.6
2015-Jul-05 08:33N 36°51' E 001°40'1818.1
2015-Jul-05 07:33N 36°54' E 002°03'8 8.0
2015-Jul-05 06:33N 36°55' E 002°13'1716.7
2015-Jul-05 05:33N 36°57' E 002°33'1919.0
2015-Jul-05 04:33N 36°60' E 002°57'1918.9
2015-Jul-05 03:33N 37°02' E 003°20'1919.0
2015-Jul-05 02:32N 37°05' E 003°44'1919.0
2015-Jul-05 01:33N 37°08' E 004°07'3919.3
2015-Jul-04 23:32N 37°13' E 004°56'2718.9
2015-Jul-04 22:08N 37°16' E 005°29'1119.3
2015-Jul-04 21:33N 37°18' E 005°43'12419.3
2015-Jul-04 15:08N 37°34' E 008°17'1518.5
2015-Jul-04 14:20N 37°36' E 008°36'1518.7
2015-Jul-04 13:34N 37°37' E 008°54'1918.8
2015-Jul-04 12:34N 37°38' E 009°18'1918.5
2015-Jul-04 11:33N 37°39' E 009°41'2218.6
2015-Jul-04 10:23N 37°39' E 010°09'1518.3
2015-Jul-04 09:33N 37°37' E 010°28'2118.4
2015-Jul-04 08:24N 37°31' E 010°53'1818.4
2015-Jul-04 07:25N 37°25' E 011°15'1619.0
2015-Jul-04 06:34N 37°18' E 011°33'2120.3
2015-Jul-04 05:32N 37°09' E 011°57'1818.7
2015-Jul-04 04:33N 37°03' E 012°19'1919.0
2015-Jul-04 03:33N 36°58' E 012°42'1919.0
2015-Jul-04 02:33N 36°52' E 013°04'1818.6
2015-Jul-04 01:33N 36°46' E 013°26'1918.6
2015-Jul-04 00:34N 36°40' E 013°48'1818.3
2015-Jul-03 23:33N 36°35' E 014°10'1918.6
2015-Jul-03 22:33N 36°29' E 014°32'1818.3
2015-Jul-03 21:33N 36°27' E 014°55'1918.6
2015-Jul-03 20:33N 36°27' E 015°18'1918.8
2015-Jul-03 19:33N 36°27' E 015°41'  
2015-Jun-30 23:29N 40°25' E 029°06'19 9.7
2015-Jun-30 21:33N 40°32' E 028°43'1414.4
2015-Jun-30 20:33N 40°46' E 028°42'9 0.3
2015-Jun-29 18:15N 40°55' E 028°42'1213.4
2015-Jun-29 17:23N 40°44' E 028°44'1517.7
2015-Jun-29 16:33N 40°45' E 029°03'1515.4
2015-Jun-29 15:33N 40°45' E 029°24'6 5.9
2015-Jun-29 14:27N 40°46' E 029°32'0 0.0
2015-Jun-29 13:33N 40°46' E 029°32'0 0.0
2015-Jun-29 12:27N 40°46' E 029°32'0 0.0
2015-Jun-29 11:32N 40°46' E 029°32'0 0.0
2015-Jun-29 10:32N 40°46' E 029°32'0 0.0
2015-Jun-29 08:25N 40°46' E 029°32'0 0.0
2015-Jun-29 07:18N 40°46' E 029°32'0 0.0
2015-Jun-29 06:24N 40°46' E 029°32'0 0.0
2015-Jun-29 05:30N 40°46' E 029°32'0 0.0
2015-Jun-29 04:29N 40°46' E 029°32'0 0.0
2015-Jun-29 02:28N 40°46' E 029°32'0 0.0
2015-Jun-29 01:16N 40°46' E 029°32'0 0.0
2015-Jun-29 00:15N 40°46' E 029°32'0 0.0
2015-Jun-28 23:27N 40°46' E 029°32'0 0.0
2015-Jun-28 22:33N 40°46' E 029°32'0 0.0
2015-Jun-28 21:32N 40°46' E 029°32'0 0.0
2015-Jun-28 20:26N 40°46' E 029°32'0 0.0
2015-Jun-28 19:25N 40°46' E 029°32'0 0.0
2015-Jun-28 18:31N 40°46' E 029°32'0 0.0
2015-Jun-28 17:24N 40°46' E 029°32'0 0.0
2015-Jun-28 15:17N 40°46' E 029°32'0 0.0
2015-Jun-28 13:11N 40°46' E 029°32'0 0.0
2015-Jun-28 12:19N 40°46' E 029°32'3 4.4
2015-Jun-28 11:33N 40°45' E 029°28'9 9.2
2015-Jun-28 10:33N 40°44' E 029°16'1616.1
2015-Jun-28 09:33N 40°44' E 028°54'26415.5
2015-Jun-27 16:32N 37°52' E 024°36'  

Dump ship's entire track history